sensor_id;sensor_type;location;lat;lon;timestamp;pressure;altitude;pressure_sealevel;temperature;humidity
71716;BME280;59568;52.128;5.434;2024-01-30T00:01:08;102779.91;;;5.30;100.00
71716;BME280;59568;52.128;5.434;2024-01-30T00:03:35;102782.69;;;5.28;100.00
71716;BME280;59568;52.128;5.434;2024-01-30T00:06:03;102778.72;;;5.26;100.00
71716;BME280;59568;52.128;5.434;2024-01-30T00:08:30;102784.88;;;5.25;100.00
71716;BME280;59568;52.128;5.434;2024-01-30T00:10:57;102780.09;;;5.22;100.00
71716;BME280;59568;52.128;5.434;2024-01-30T00:13:24;102785.28;;;5.22;100.00
71716;BME280;59568;52.128;5.434;2024-01-30T00:15:50;102776.91;;;5.19;100.00
71716;BME280;59568;52.128;5.434;2024-01-30T00:18:17;102781.50;;;5.17;100.00
71716;BME280;59568;52.128;5.434;2024-01-30T00:20:45;102779.31;;;5.14;100.00
71716;BME280;59568;52.128;5.434;2024-01-30T00:23:12;102776.91;;;5.13;100.00
71716;BME280;59568;52.128;5.434;2024-01-30T00:25:39;102775.53;;;5.10;100.00
71716;BME280;59568;52.128;5.434;2024-01-30T00:28:05;102781.91;;;5.08;100.00
71716;BME280;59568;52.128;5.434;2024-01-30T00:30:32;102782.88;;;5.07;100.00
71716;BME280;59568;52.128;5.434;2024-01-30T00:32:59;102774.75;;;5.03;100.00
71716;BME280;59568;52.128;5.434;2024-01-30T00:35:27;102772.34;;;5.02;100.00
71716;BME280;59568;52.128;5.434;2024-01-30T00:37:53;102775.91;;;5.00;100.00
71716;BME280;59568;52.128;5.434;2024-01-30T00:40:20;102773.53;;;4.99;100.00
71716;BME280;59568;52.128;5.434;2024-01-30T00:42:47;102770.97;;;4.99;100.00
71716;BME280;59568;52.128;5.434;2024-01-30T00:45:15;102766.94;;;4.96;100.00
71716;BME280;59568;52.128;5.434;2024-01-30T00:47:42;102768.75;;;4.96;100.00
71716;BME280;59568;52.128;5.434;2024-01-30T00:50:09;102767.38;;;4.93;100.00
71716;BME280;59568;52.128;5.434;2024-01-30T00:52:36;102773.72;;;4.91;100.00
71716;BME280;59568;52.128;5.434;2024-01-30T00:55:05;102769.75;;;4.88;100.00
71716;BME280;59568;52.128;5.434;2024-01-30T00:57:32;102774.13;;;4.88;100.00
71716;BME280;59568;52.128;5.434;2024-01-30T00:59:59;102771.94;;;4.85;100.00
71716;BME280;59568;52.128;5.434;2024-01-30T01:02:26;102765.75;;;4.86;100.00
71716;BME280;59568;52.128;5.434;2024-01-30T01:04:53;102769.34;;;4.85;100.00
71716;BME280;59568;52.128;5.434;2024-01-30T01:07:20;102764.56;;;4.82;100.00
71716;BME280;59568;52.128;5.434;2024-01-30T01:09:47;102769.16;;;4.79;100.00
71716;BME280;59568;52.128;5.434;2024-01-30T01:12:14;102761.75;;;4.76;100.00
71716;BME280;59568;52.128;5.434;2024-01-30T01:14:41;102766.56;;;4.73;100.00
71716;BME280;59568;52.128;5.434;2024-01-30T01:17:08;102762.56;;;4.70;100.00
71716;BME280;59568;52.128;5.434;2024-01-30T01:19:35;102759.78;;;4.65;100.00
71716;BME280;59568;52.128;5.434;2024-01-30T01:22:02;102758.97;;;4.65;100.00
71716;BME280;59568;52.128;5.434;2024-01-30T01:24:33;102754.97;;;4.62;100.00
71716;BME280;59568;52.128;5.434;2024-01-30T01:27:00;102744.44;;;4.57;100.00
71716;BME280;59568;52.128;5.434;2024-01-30T01:29:28;102740.66;;;4.53;100.00
71716;BME280;59568;52.128;5.434;2024-01-30T01:31:58;102734.66;;;4.52;100.00
71716;BME280;59568;52.128;5.434;2024-01-30T01:34:24;102733.06;;;4.51;100.00
71716;BME280;59568;52.128;5.434;2024-01-30T01:36:56;102740.66;;;4.53;100.00
71716;BME280;59568;52.128;5.434;2024-01-30T01:39:23;102735.66;;;4.51;100.00
71716;BME280;59568;52.128;5.434;2024-01-30T01:41:50;102734.66;;;4.52;100.00
71716;BME280;59568;52.128;5.434;2024-01-30T01:44:18;102733.25;;;4.50;100.00
71716;BME280;59568;52.128;5.434;2024-01-30T01:46:45;102741.03;;;4.50;100.00
71716;BME280;59568;52.128;5.434;2024-01-30T01:49:13;102734.28;;;4.49;100.00
71716;BME280;59568;52.128;5.434;2024-01-30T01:51:42;102743.03;;;4.48;100.00
71716;BME280;59568;52.128;5.434;2024-01-30T01:54:11;102741.44;;;4.47;100.00
71716;BME280;59568;52.128;5.434;2024-01-30T01:56:39;102731.88;;;4.47;100.00
71716;BME280;59568;52.128;5.434;2024-01-30T01:59:07;102737.06;;;4.47;100.00
71716;BME280;59568;52.128;5.434;2024-01-30T02:01:38;102730.47;;;4.45;100.00
71716;BME280;59568;52.128;5.434;2024-01-30T02:04:07;102741.81;;;4.44;100.00
71716;BME280;59568;52.128;5.434;2024-01-30T02:06:35;102735.03;;;4.43;100.00
71716;BME280;59568;52.128;5.434;2024-01-30T02:09:02;102735.44;;;4.39;100.00
71716;BME280;59568;52.128;5.434;2024-01-30T02:11:31;102732.84;;;4.39;100.00
71716;BME280;59568;52.128;5.434;2024-01-30T02:14:02;102732.66;;;4.41;100.00
71716;BME280;59568;52.128;5.434;2024-01-30T02:16:31;102731.66;;;4.42;100.00
71716;BME280;59568;52.128;5.434;2024-01-30T02:18:58;102726.66;;;4.40;100.00
71716;BME280;59568;52.128;5.434;2024-01-30T02:21:25;102724.31;;;4.39;100.00
71716;BME280;59568;52.128;5.434;2024-01-30T02:23:52;102720.69;;;4.40;100.00
71716;BME280;59568;52.128;5.434;2024-01-30T02:26:21;102727.69;;;4.39;100.00
71716;BME280;59568;52.128;5.434;2024-01-30T02:28:48;102728.28;;;4.42;100.00
71716;BME280;59568;52.128;5.434;2024-01-30T02:31:15;102730.25;;;4.39;100.00
71716;BME280;59568;52.128;5.434;2024-01-30T02:33:42;102737.03;;;4.40;100.00
71716;BME280;59568;52.128;5.434;2024-01-30T02:36:09;102740.03;;;4.44;100.00
71716;BME280;59568;52.128;5.434;2024-01-30T02:38:36;102737.06;;;4.47;100.00
71716;BME280;59568;52.128;5.434;2024-01-30T02:41:03;102740.44;;;4.48;100.00
71716;BME280;59568;52.128;5.434;2024-01-30T02:43:29;102731.09;;;4.47;100.00
71716;BME280;59568;52.128;5.434;2024-01-30T02:45:56;102731.09;;;4.47;100.00
71716;BME280;59568;52.128;5.434;2024-01-30T02:48:25;102725.91;;;4.47;100.00
71716;BME280;59568;52.128;5.434;2024-01-30T02:50:51;102724.91;;;4.48;100.00
71716;BME280;59568;52.128;5.434;2024-01-30T02:53:18;102722.31;;;4.48;100.00
71716;BME280;59568;52.128;5.434;2024-01-30T02:55:45;102713.94;;;4.46;100.00
71716;BME280;59568;52.128;5.434;2024-01-30T02:58:12;102717.50;;;4.45;100.00
71716;BME280;59568;52.128;5.434;2024-01-30T03:00:39;102703.22;;;4.49;100.00
71716;BME280;59568;52.128;5.434;2024-01-30T03:03:06;102694.63;;;4.48;100.00
71716;BME280;59568;52.128;5.434;2024-01-30T03:05:33;102704.97;;;4.48;100.00
71716;BME280;59568;52.128;5.434;2024-01-30T03:08:00;102703.22;;;4.49;100.00
71716;BME280;59568;52.128;5.434;2024-01-30T03:10:27;102705.19;;;4.47;100.00
71716;BME280;59568;52.128;5.434;2024-01-30T03:12:54;102710.38;;;4.47;100.00
71716;BME280;59568;52.128;5.434;2024-01-30T03:15:21;102698.59;;;4.44;100.00
71716;BME280;59568;52.128;5.434;2024-01-30T03:17:48;102690.66;;;4.46;100.00
71716;BME280;59568;52.128;5.434;2024-01-30T03:20:14;102675.91;;;4.46;100.00
71716;BME280;59568;52.128;5.434;2024-01-30T03:22:41;102677.31;;;4.49;100.00
71716;BME280;59568;52.128;5.434;2024-01-30T03:25:08;102678.50;;;4.53;100.00
71716;BME280;59568;52.128;5.434;2024-01-30T03:27:35;102678.50;;;4.53;100.00
71716;BME280;59568;52.128;5.434;2024-01-30T03:30:02;102685.28;;;4.54;100.00
71716;BME280;59568;52.128;5.434;2024-01-30T03:32:29;102681.69;;;4.55;100.00
71716;BME280;59568;52.128;5.434;2024-01-30T03:34:56;102685.88;;;4.56;100.00
71716;BME280;59568;52.128;5.434;2024-01-30T03:37:25;102686.09;;;4.61;100.00
71716;BME280;59568;52.128;5.434;2024-01-30T03:39:52;102682.28;;;4.64;100.00
71716;BME280;59568;52.128;5.434;2024-01-30T03:42:19;102683.69;;;4.66;100.00
71716;BME280;59568;52.128;5.434;2024-01-30T03:44:46;102673.13;;;4.68;100.00
71716;BME280;59568;52.128;5.434;2024-01-30T03:47:12;102675.53;;;4.69;100.00
71716;BME280;59568;52.128;5.434;2024-01-30T03:49:40;102674.31;;;4.72;100.00
71716;BME280;59568;52.128;5.434;2024-01-30T03:52:07;102674.91;;;4.74;100.00
71716;BME280;59568;52.128;5.434;2024-01-30T03:54:34;102674.91;;;4.74;100.00
71716;BME280;59568;52.128;5.434;2024-01-30T03:57:00;102672.13;;;4.75;100.00
71716;BME280;59568;52.128;5.434;2024-01-30T03:59:27;102664.97;;;4.77;100.00
71716;BME280;59568;52.128;5.434;2024-01-30T04:01:54;102656.78;;;4.80;100.00
71716;BME280;59568;52.128;5.434;2024-01-30T04:04:22;102669.34;;;4.84;100.00
71716;BME280;59568;52.128;5.434;2024-01-30T04:06:49;102669.91;;;4.86;100.00
71716;BME280;59568;52.128;5.434;2024-01-30T04:09:16;102671.28;;;4.95;100.00
71716;BME280;59568;52.128;5.434;2024-01-30T04:11:43;102676.06;;;4.98;100.00
71716;BME280;59568;52.128;5.434;2024-01-30T04:14:10;102673.69;;;5.03;100.00
71716;BME280;59568;52.128;5.434;2024-01-30T04:16:37;102674.47;;;5.10;100.00
71716;BME280;59568;52.128;5.434;2024-01-30T04:19:04;102679.25;;;5.13;100.00
71716;BME280;59568;52.128;5.434;2024-01-30T04:21:31;102674.66;;;5.15;100.00
71716;BME280;59568;52.128;5.434;2024-01-30T04:23:58;102680.59;;;5.23;100.00
71716;BME280;59568;52.128;5.434;2024-01-30T04:26:25;102668.03;;;5.26;100.00
71716;BME280;59568;52.128;5.434;2024-01-30T04:28:52;102672.00;;;5.29;100.00
71716;BME280;59568;52.128;5.434;2024-01-30T04:31:18;102657.88;;;5.31;100.00
71716;BME280;59568;52.128;5.434;2024-01-30T04:33:45;102654.84;;;5.34;100.00
71716;BME280;59568;52.128;5.434;2024-01-30T04:36:12;102664.59;;;5.39;100.00
71716;BME280;59568;52.128;5.434;2024-01-30T04:38:39;102662.81;;;5.39;100.00
71716;BME280;59568;52.128;5.434;2024-01-30T04:41:07;102659.59;;;5.44;100.00
71716;BME280;59568;52.128;5.434;2024-01-30T04:43:34;102648.81;;;5.47;100.00
71716;BME280;59568;52.128;5.434;2024-01-30T04:46:00;102654.59;;;5.49;100.00
71716;BME280;59568;52.128;5.434;2024-01-30T04:48:28;102640.44;;;5.52;100.00
71716;BME280;59568;52.128;5.434;2024-01-30T04:50:55;102642.59;;;5.55;100.00
71716;BME280;59568;52.128;5.434;2024-01-30T04:53:23;102646.00;;;5.55;100.00
71716;BME280;59568;52.128;5.434;2024-01-30T04:55:49;102648.19;;;5.58;100.00
71716;BME280;59568;52.128;5.434;2024-01-30T04:58:16;102654.16;;;5.59;100.00
71716;BME280;59568;52.128;5.434;2024-01-30T05:00:43;102638.00;;;5.64;100.00
71716;BME280;59568;52.128;5.434;2024-01-30T05:03:12;102653.13;;;5.67;100.00
71716;BME280;59568;52.128;5.434;2024-01-30T05:05:39;102650.31;;;5.68;100.00
71716;BME280;59568;52.128;5.434;2024-01-30T05:08:06;102650.72;;;5.72;100.00
71716;BME280;59568;52.128;5.434;2024-01-30T05:10:33;102660.47;;;5.76;100.00
71716;BME280;59568;52.128;5.434;2024-01-30T05:13:00;102654.25;;;5.77;100.00
71716;BME280;59568;52.128;5.434;2024-01-30T05:15:27;102650.66;;;5.78;100.00
71716;BME280;59568;52.128;5.434;2024-01-30T05:17:54;102649.69;;;5.79;100.00
71716;BME280;59568;52.128;5.434;2024-01-30T05:20:21;102655.66;;;5.80;100.00
71716;BME280;59568;52.128;5.434;2024-01-30T05:22:48;102647.44;;;5.83;100.00
71716;BME280;59568;52.128;5.434;2024-01-30T05:25:15;102648.03;;;5.85;100.00
71716;BME280;59568;52.128;5.434;2024-01-30T05:27:43;102641.66;;;5.88;100.00
71716;BME280;59568;52.128;5.434;2024-01-30T05:30:10;102641.41;;;5.89;100.00
71716;BME280;59568;52.128;5.434;2024-01-30T05:32:37;102632.22;;;5.93;100.00
71716;BME280;59568;52.128;5.434;2024-01-30T05:35:04;102630.81;;;5.97;100.00
71716;BME280;59568;52.128;5.434;2024-01-30T05:37:31;102613.47;;;5.98;100.00
71716;BME280;59568;52.128;5.434;2024-01-30T05:39:58;102624.19;;;6.02;100.00
71716;BME280;59568;52.128;5.434;2024-01-30T05:42:25;102638.19;;;6.00;100.00
71716;BME280;59568;52.128;5.434;2024-01-30T05:44:52;102635.41;;;6.02;100.00
71716;BME280;59568;52.128;5.434;2024-01-30T05:47:19;102649.75;;;6.05;100.00
71716;BME280;59568;52.128;5.434;2024-01-30T05:49:46;102654.53;;;6.08;100.00
71716;BME280;59568;52.128;5.434;2024-01-30T05:52:13;102619.78;;;6.09;100.00
71716;BME280;59568;52.128;5.434;2024-01-30T05:54:39;102624.19;;;6.08;100.00
71716;BME280;59568;52.128;5.434;2024-01-30T05:57:06;102642.13;;;6.10;100.00
71716;BME280;59568;52.128;5.434;2024-01-30T05:59:33;102632.34;;;6.12;100.00
71716;BME280;59568;52.128;5.434;2024-01-30T06:02:03;102641.69;;;6.13;100.00
71716;BME280;59568;52.128;5.434;2024-01-30T06:04:30;102640.72;;;6.14;100.00
71716;BME280;59568;52.128;5.434;2024-01-30T06:06:57;102642.28;;;6.15;100.00
71716;BME280;59568;52.128;5.434;2024-01-30T06:09:24;102654.03;;;6.17;100.00
71716;BME280;59568;52.128;5.434;2024-01-30T06:11:51;102642.88;;;6.17;100.00
71716;BME280;59568;52.128;5.434;2024-01-30T06:14:18;102637.28;;;6.20;100.00
71716;BME280;59568;52.128;5.434;2024-01-30T06:16:45;102643.25;;;6.20;100.00
71716;BME280;59568;52.128;5.434;2024-01-30T06:19:12;102644.03;;;6.21;100.00
71716;BME280;59568;52.128;5.434;2024-01-30T06:21:39;102643.03;;;6.22;100.00
71716;BME280;59568;52.128;5.434;2024-01-30T06:24:05;102643.84;;;6.23;100.00
71716;BME280;59568;52.128;5.434;2024-01-30T06:26:33;102640.00;;;6.25;100.00
71716;BME280;59568;52.128;5.434;2024-01-30T06:29:00;102639.03;;;6.26;100.00
71716;BME280;59568;52.128;5.434;2024-01-30T06:31:27;102636.44;;;6.26;100.00
71716;BME280;59568;52.128;5.434;2024-01-30T06:33:54;102641.63;;;6.26;100.00
71716;BME280;59568;52.128;5.434;2024-01-30T06:36:21;102643.41;;;6.26;100.00
71716;BME280;59568;52.128;5.434;2024-01-30T06:38:48;102645.78;;;6.27;100.00
71716;BME280;59568;52.128;5.434;2024-01-30T06:41:15;102654.38;;;6.28;100.00
71716;BME280;59568;52.128;5.434;2024-01-30T06:43:42;102642.19;;;6.28;100.00
71716;BME280;59568;52.128;5.434;2024-01-30T06:46:11;102650.00;;;6.28;100.00
71716;BME280;59568;52.128;5.434;2024-01-30T06:48:39;102652.97;;;6.32;100.00
71716;BME280;59568;52.128;5.434;2024-01-30T06:51:07;102653.75;;;6.32;100.00
71716;BME280;59568;52.128;5.434;2024-01-30T06:53:34;102657.91;;;6.33;100.00
71716;BME280;59568;52.128;5.434;2024-01-30T06:56:02;102648.13;;;6.35;100.00
71716;BME280;59568;52.128;5.434;2024-01-30T06:58:29;102662.72;;;6.36;100.00
71716;BME280;59568;52.128;5.434;2024-01-30T07:00:56;102659.09;;;6.37;100.00
71716;BME280;59568;52.128;5.434;2024-01-30T07:03:23;102659.91;;;6.38;100.00
71716;BME280;59568;52.128;5.434;2024-01-30T07:05:50;102655.50;;;6.38;100.00
71716;BME280;59568;52.128;5.434;2024-01-30T07:08:18;102671.88;;;6.39;100.00
71716;BME280;59568;52.128;5.434;2024-01-30T07:10:45;102657.91;;;6.40;100.00
71716;BME280;59568;52.128;5.434;2024-01-30T07:13:12;102649.28;;;6.39;100.00
71716;BME280;59568;52.128;5.434;2024-01-30T07:15:39;102657.06;;;6.39;100.00
71716;BME280;59568;52.128;5.434;2024-01-30T07:18:06;102658.69;;;6.40;100.00
71716;BME280;59568;52.128;5.434;2024-01-30T07:20:34;102661.06;;;6.42;100.00
71716;BME280;59568;52.128;5.434;2024-01-30T07:23:02;102656.66;;;6.43;100.00
71716;BME280;59568;52.128;5.434;2024-01-30T07:25:30;102667.06;;;6.43;100.00
71716;BME280;59568;52.128;5.434;2024-01-30T07:27:57;102657.66;;;6.42;100.00
71716;BME280;59568;52.128;5.434;2024-01-30T07:30:24;102672.63;;;6.46;100.00
71716;BME280;59568;52.128;5.434;2024-01-30T07:32:51;102673.41;;;6.47;100.00
71716;BME280;59568;52.128;5.434;2024-01-30T07:35:18;102678.97;;;6.50;100.00
71716;BME280;59568;52.128;5.434;2024-01-30T07:37:45;102679.34;;;6.54;100.00
71716;BME280;59568;52.128;5.434;2024-01-30T07:40:12;102678.91;;;6.57;100.00
71716;BME280;59568;52.128;5.434;2024-01-30T07:42:39;102685.28;;;6.61;100.00
71716;BME280;59568;52.128;5.434;2024-01-30T07:45:06;102678.84;;;6.64;100.00
71716;BME280;59568;52.128;5.434;2024-01-30T07:47:34;102679.22;;;6.67;100.00
71716;BME280;59568;52.128;5.434;2024-01-30T07:50:01;102687.59;;;6.69;100.00
71716;BME280;59568;52.128;5.434;2024-01-30T07:52:28;102692.38;;;6.72;100.00
71716;BME280;59568;52.128;5.434;2024-01-30T07:54:55;102690.97;;;6.76;100.00
71716;BME280;59568;52.128;5.434;2024-01-30T07:57:22;102690.50;;;6.79;100.00
71716;BME280;59568;52.128;5.434;2024-01-30T07:59:49;102695.88;;;6.85;100.00
71716;BME280;59568;52.128;5.434;2024-01-30T08:02:16;102705.03;;;6.87;100.00
71716;BME280;59568;52.128;5.434;2024-01-30T08:04:43;102702.03;;;6.90;100.00
71716;BME280;59568;52.128;5.434;2024-01-30T08:07:15;102712.56;;;6.95;100.00
71716;BME280;59568;52.128;5.434;2024-01-30T08:09:44;102691.69;;;7.02;100.00
71716;BME280;59568;52.128;5.434;2024-01-30T08:12:11;102712.66;;;7.07;100.00
71716;BME280;59568;52.128;5.434;2024-01-30T08:14:39;102707.63;;;7.12;100.00
71716;BME280;59568;52.128;5.434;2024-01-30T08:17:08;102703.91;;;7.20;100.00
71716;BME280;59568;52.128;5.434;2024-01-30T08:19:35;102693.66;;;7.25;100.00
71716;BME280;59568;52.128;5.434;2024-01-30T08:22:02;102698.22;;;7.30;100.00
71716;BME280;59568;52.128;5.434;2024-01-30T08:24:29;102697.34;;;7.36;100.00
71716;BME280;59568;52.128;5.434;2024-01-30T08:26:56;102693.66;;;7.44;100.00
71716;BME280;59568;52.128;5.434;2024-01-30T08:29:25;102707.16;;;7.52;100.00
71716;BME280;59568;52.128;5.434;2024-01-30T08:31:52;102702.09;;;7.57;100.00
71716;BME280;59568;52.128;5.434;2024-01-30T08:34:19;102707.47;;;7.63;100.00
71716;BME280;59568;52.128;5.434;2024-01-30T08:36:46;102702.38;;;7.68;100.00
71716;BME280;59568;52.128;5.434;2024-01-30T08:39:13;102701.28;;;7.75;100.00
71716;BME280;59568;52.128;5.434;2024-01-30T08:41:41;102696.78;;;7.83;100.00
71716;BME280;59568;52.128;5.434;2024-01-30T08:44:08;102697.50;;;7.90;100.00
71716;BME280;59568;52.128;5.434;2024-01-30T08:46:37;102697.97;;;7.98;100.00
71716;BME280;59568;52.128;5.434;2024-01-30T08:49:04;102697.53;;;8.02;100.00
71716;BME280;59568;52.128;5.434;2024-01-30T08:51:31;102695.59;;;8.09;100.00
71716;BME280;59568;52.128;5.434;2024-01-30T08:53:59;102694.97;;;8.13;100.00
71716;BME280;59568;52.128;5.434;2024-01-30T08:56:26;102704.03;;;8.23;100.00
71716;BME280;59568;52.128;5.434;2024-01-30T08:58:54;102703.13;;;8.29;100.00
71716;BME280;59568;52.128;5.434;2024-01-30T09:01:21;102714.03;;;8.37;100.00
71716;BME280;59568;52.128;5.434;2024-01-30T09:03:48;102715.00;;;8.43;100.00
71716;BME280;59568;52.128;5.434;2024-01-30T09:06:15;102712.28;;;8.50;100.00
71716;BME280;59568;52.128;5.434;2024-01-30T09:08:42;102700.25;;;8.60;100.00
71716;BME280;59568;52.128;5.434;2024-01-30T09:11:11;102703.44;;;8.74;100.00
71716;BME280;59568;52.128;5.434;2024-01-30T09:13:38;102707.19;;;8.90;100.00
71716;BME280;59568;52.128;5.434;2024-01-30T09:16:05;102709.56;;;9.04;100.00
71716;BME280;59568;52.128;5.434;2024-01-30T09:18:33;102705.91;;;9.16;100.00
71716;BME280;59568;52.128;5.434;2024-01-30T09:21:00;102717.34;;;9.27;100.00
71716;BME280;59568;52.128;5.434;2024-01-30T09:23:28;102711.53;;;9.37;100.00
71716;BME280;59568;52.128;5.434;2024-01-30T09:25:55;102722.09;;;9.42;100.00
71716;BME280;59568;52.128;5.434;2024-01-30T09:28:22;102719.22;;;9.44;100.00
71716;BME280;59568;52.128;5.434;2024-01-30T09:30:53;102718.44;;;9.43;100.00
71716;BME280;59568;52.128;5.434;2024-01-30T09:33:20;102728.09;;;9.43;100.00
71716;BME280;59568;52.128;5.434;2024-01-30T09:35:47;102723.66;;;9.43;100.00
71716;BME280;59568;52.128;5.434;2024-01-30T09:38:14;102722.66;;;9.44;100.00
71716;BME280;59568;52.128;5.434;2024-01-30T09:40:41;102719.00;;;9.45;100.00
71716;BME280;59568;52.128;5.434;2024-01-30T09:43:11;102723.78;;;9.48;100.00
71716;BME280;59568;52.128;5.434;2024-01-30T09:45:45;102725.91;;;9.51;100.00
71716;BME280;59568;52.128;5.434;2024-01-30T09:48:13;102731.69;;;9.53;100.00
71716;BME280;59568;52.128;5.434;2024-01-30T09:50:41;102731.25;;;9.56;100.00
71716;BME280;59568;52.128;5.434;2024-01-30T09:53:08;102736.78;;;9.60;100.00
71716;BME280;59568;52.128;5.434;2024-01-30T09:55:36;102742.00;;;9.60;100.00
71716;BME280;59568;52.128;5.434;2024-01-30T09:58:03;102730.09;;;9.64;100.00
71716;BME280;59568;52.128;5.434;2024-01-30T10:00:30;102730.09;;;9.64;100.00
71716;BME280;59568;52.128;5.434;2024-01-30T10:02:57;102734.59;;;9.69;100.00
71716;BME280;59568;52.128;5.434;2024-01-30T10:05:27;102740.94;;;9.73;100.00
71716;BME280;59568;52.128;5.434;2024-01-30T10:07:57;102742.06;;;9.77;100.00
71716;BME280;59568;52.128;5.434;2024-01-30T10:10:25;102740.78;;;9.79;100.00
71716;BME280;59568;52.128;5.434;2024-01-30T10:12:52;102735.56;;;9.79;100.00
71716;BME280;59568;52.128;5.434;2024-01-30T10:15:20;102734.78;;;9.79;100.00
71716;BME280;59568;52.128;5.434;2024-01-30T10:17:47;102732.50;;;9.83;100.00
71716;BME280;59568;52.128;5.434;2024-01-30T10:20:14;102733.84;;;9.85;100.00
71716;BME280;59568;52.128;5.434;2024-01-30T10:22:41;102739.41;;;9.89;100.00
71716;BME280;59568;52.128;5.434;2024-01-30T10:25:12;102742.91;;;9.94;100.00
71716;BME280;59568;52.128;5.434;2024-01-30T10:27:40;102735.16;;;9.99;100.00
71716;BME280;59568;52.128;5.434;2024-01-30T10:30:07;102729.81;;;10.06;100.00
71716;BME280;59568;52.128;5.434;2024-01-30T10:32:34;102732.34;;;10.18;100.00
71716;BME280;59568;52.128;5.434;2024-01-30T10:35:02;102725.28;;;10.30;100.00
71716;BME280;59568;52.128;5.434;2024-01-30T10:37:30;102744.28;;;10.43;100.00
71716;BME280;59568;52.128;5.434;2024-01-30T10:40:03;102741.81;;;10.53;100.00
71716;BME280;59568;52.128;5.434;2024-01-30T10:42:32;102736.53;;;10.65;100.00
71716;BME280;59568;52.128;5.434;2024-01-30T10:45:11;102724.78;;;10.67;100.00
71716;BME280;59568;52.128;5.434;2024-01-30T10:47:49;102735.72;;;10.64;100.00
71716;BME280;59568;52.128;5.434;2024-01-30T10:50:17;102743.50;;;10.59;100.00
71716;BME280;59568;52.128;5.434;2024-01-30T10:52:44;102730.03;;;10.50;100.00
71716;BME280;59568;52.128;5.434;2024-01-30T10:55:12;102733.91;;;10.48;100.00
71716;BME280;59568;52.128;5.434;2024-01-30T10:57:40;102744.56;;;10.46;100.00
71716;BME280;59568;52.128;5.434;2024-01-30T11:00:10;102738.56;;;10.46;100.00
71716;BME280;59568;52.128;5.434;2024-01-30T11:02:43;102739.78;;;10.55;100.00
71716;BME280;59568;52.128;5.434;2024-01-30T11:05:12;102738.59;;;10.63;100.00
71716;BME280;59568;52.128;5.434;2024-01-30T11:07:40;102742.22;;;10.62;100.00
71716;BME280;59568;52.128;5.434;2024-01-30T11:10:12;102730.47;;;10.64;100.00
71716;BME280;59568;52.128;5.434;2024-01-30T11:12:42;102745.69;;;10.67;100.00
71716;BME280;59568;52.128;5.434;2024-01-30T11:15:15;102740.78;;;10.71;100.00
71716;BME280;59568;52.128;5.434;2024-01-30T11:17:51;102736.56;;;10.87;100.00
71716;BME280;59568;52.128;5.434;2024-01-30T11:20:25;102745.34;;;10.97;100.00
71716;BME280;59568;52.128;5.434;2024-01-30T11:22:53;102742.19;;;10.95;100.00
71716;BME280;59568;52.128;5.434;2024-01-30T11:25:22;102744.25;;;10.93;100.00
71716;BME280;59568;52.128;5.434;2024-01-30T11:27:54;102727.44;;;10.89;100.00
71716;BME280;59568;52.128;5.434;2024-01-30T11:30:27;102747.03;;;10.87;100.00
71716;BME280;59568;52.128;5.434;2024-01-30T11:33:10;102752.81;;;10.89;100.00
71716;BME280;59568;52.128;5.434;2024-01-30T11:35:40;102737.81;;;10.84;100.00
71716;BME280;59568;52.128;5.434;2024-01-30T11:38:09;102749.34;;;10.83;100.00
71716;BME280;59568;52.128;5.434;2024-01-30T11:40:38;102761.63;;;10.83;100.00
71716;BME280;59568;52.128;5.434;2024-01-30T11:43:08;102761.94;;;10.69;100.00
71716;BME280;59568;52.128;5.434;2024-01-30T11:45:36;102765.97;;;10.60;100.00
71716;BME280;59568;52.128;5.434;2024-01-30T11:48:04;102771.38;;;10.53;100.00
71716;BME280;59568;52.128;5.434;2024-01-30T11:50:33;102763.75;;;10.52;100.00
71716;BME280;59568;52.128;5.434;2024-01-30T11:53:01;102767.53;;;10.44;100.00
71716;BME280;59568;52.128;5.434;2024-01-30T11:55:31;102776.34;;;10.38;100.00
71716;BME280;59568;52.128;5.434;2024-01-30T11:58:01;102763.97;;;10.33;100.00
71716;BME280;59568;52.128;5.434;2024-01-30T12:00:28;102763.44;;;10.31;100.00
71716;BME280;59568;52.128;5.434;2024-01-30T12:02:58;102777.28;;;10.32;100.00
71716;BME280;59568;52.128;5.434;2024-01-30T12:05:28;102777.03;;;10.33;100.00
71716;BME280;59568;52.128;5.434;2024-01-30T12:07:55;102780.16;;;10.30;100.00
71716;BME280;59568;52.128;5.434;2024-01-30T12:10:27;102780.25;;;10.24;100.00
71716;BME280;59568;52.128;5.434;2024-01-30T12:12:54;102790.91;;;10.22;100.00
71716;BME280;59568;52.128;5.434;2024-01-30T12:15:22;102770.97;;;10.16;100.00
71716;BME280;59568;52.128;5.434;2024-01-30T12:17:50;102783.72;;;10.12;100.00
71716;BME280;59568;52.128;5.434;2024-01-30T12:20:18;102778.94;;;10.09;100.00
71716;BME280;59568;52.128;5.434;2024-01-30T12:22:48;102791.31;;;10.14;100.00
71716;BME280;59568;52.128;5.434;2024-01-30T12:25:17;102793.91;;;10.14;100.00
71716;BME280;59568;52.128;5.434;2024-01-30T12:27:47;102796.72;;;9.95;100.00
71716;BME280;59568;52.128;5.434;2024-01-30T12:30:18;102808.22;;;9.83;100.00
71716;BME280;59568;52.128;5.434;2024-01-30T12:32:50;102810.09;;;9.70;100.00
71716;BME280;59568;52.128;5.434;2024-01-30T12:35:19;102820.53;;;9.58;100.00
71716;BME280;59568;52.128;5.434;2024-01-30T12:37:48;102831.44;;;9.44;100.00
71716;BME280;59568;52.128;5.434;2024-01-30T12:40:15;102825.22;;;9.33;100.00
71716;BME280;59568;52.128;5.434;2024-01-30T12:42:45;102834.50;;;9.29;100.00
71716;BME280;59568;52.128;5.434;2024-01-30T12:45:16;102826.91;;;9.27;100.00
71716;BME280;59568;52.128;5.434;2024-01-30T12:47:47;102828.16;;;9.25;100.00
71716;BME280;59568;52.128;5.434;2024-01-30T12:50:14;102827.81;;;9.21;100.00